ADDS METAR Data INFO
IDs: Format: Raw Decoded Include TAF

Data at: 1842 UTC 17 Oct 2017

PFKT 171810Z AUTO 04006KT 10SM SCT030 M01/M04 A2958 RMK AO2 FZRANO
PFKT 171803Z AUTO 04005KT 10SM BKN028 M01/M04 A2958 RMK AO2 FZRANO
PFKT 171756Z AUTO 04006KT 10SM BKN030 M01/M04 A2958 RMK AO2 SLP019 T10061044 10000 21017 56002 FZRANO
PFKT 171656Z AUTO 02006KT 10SM OVC030 00/M04 A2958 RMK AO2 SLP019 T00001044 FZRANO
PFKT 171625Z AUTO 02005KT 10SM OVC030 00/M04 A2958 RMK AO2 FZRANO
PFKT 171556Z AUTO 05004KT 10SM OVC028 00/M04 A2959 RMK AO2 SLP019 T00001039 FZRANO
PFKT 171456Z AUTO 01006KT 10SM OVC026 M01/M04 A2959 RMK AO2 SLP021 T10111039 56004 FZRANO
PFKT 171356Z AUTO 03007KT 10SM BKN025 OVC031 M01/M04 A2959 RMK AO2 SLP021 T10061044 FZRANO
PFKT 171256Z AUTO 03010KT 10SM OVC025 M01/M03 A2960 RMK AO2 SLP023 T10061028 FZRANO
PFKT 171156Z AUTO 03007KT 10SM OVC027 M01/M03 A2960 RMK AO2 SLP024 60000 T10061028 10006 21006 58003 FZRANO
PFKT 171056Z AUTO 03009KT 10SM OVC025 M01/M03 A2961 RMK AO2 SLP026 T10061028 FZRANO
PFKT 170956Z AUTO 03009KT 10SM OVC027 M01/M03 A2961 RMK AO2 SLP028 T10061028 FZRANO
PFKT 170856Z AUTO 03010KT 10SM OVC027 M01/M03 A2961 RMK AO2 UPE15B31E42 SLP027 P0000 60000 T10061028 400281011 53001 FZRANO
PFKT 170820Z AUTO 05006KT 10SM BKN029 M01/M02 A2961 RMK AO2 UPE15 P0000 FZRANO
PFKT 170756Z AUTO 02013G21KT 10SM UP CLR M01/M02 A2961 RMK AO2 UPB18E35B53 SLP027 P0000 T10061022 FZRANO
PFKT 170656Z AUTO 03009KT 10SM FEW022 M01/M02 A2961 RMK AO2 SLP027 T10061022 FZRANO
PFKT 170653Z AUTO 04008KT 10SM SCT022 00/M02 A2961 RMK AO2 FZRANO
PFKT 170556Z AUTO 04011KT 10SM BKN024 OVC028 01/M02 A2961 RMK AO2 SLP026 T00061017 10028 20000 58001 FZRANO
PFKT 170456Z AUTO 03009KT 10SM OVC026 01/M02 A2961 RMK AO2 SLP028 T00061017 FZRANO
PFKT 170356Z AUTO 04010KT 10SM OVC022 01/M01 A2961 RMK AO2 SLP027 T00111011 FZRANO
PFKT 170256Z AUTO 05007KT 10SM OVC025 01/M01 A2961 RMK AO2 SLP028 T00111006 56007 FZRANO
PFKT 170156Z AUTO 07007KT 10SM BKN019 BKN026 02/M01 A2962 RMK AO2 SLP029 T00171006 FZRANO
PFKT 170056Z AUTO 09005KT 10SM FEW018 BKN024 OVC035 03/00 A2962 RMK AO2 SLP031 T00280000
PFKT 170042Z AUTO 07005KT 10SM FEW022 BKN035 02/M01 A2963 RMK AO2 FZRANO
PFKT 170013Z AUTO 06006KT 10SM OVC015 02/M01 A2963 RMK AO2 FZRANO
PFKT 162356Z AUTO 05006KT 10SM OVC013 02/M01 A2963 RMK AO2 SLP035 T00171011 10017 21011 58001 FZRANO
PFKT 162256Z AUTO 05007KT 10SM OVC013 02/M01 A2964 RMK AO2 SLP037 T00171011 FZRANO
PFKT 162251Z AUTO 04007KT 10SM OVC013 02/M01 A2964 RMK AO2 FZRANO
PFKT 162156Z AUTO 07008KT 10SM OVC015 02/M01 A2964 RMK AO2 SLP036 T00171011 FZRANO
PFKT 162128Z AUTO 13005KT 10SM BKN017 02/M01 A2964 RMK AO2 FZRANO
PFKT 162056Z AUTO 10007KT 10SM FEW017 01/M02 A2963 RMK AO2 SLP036 T00111017 51003 FZRANO
PFKT 161956Z AUTO 07007KT 10SM CLR 01/M02 A2963 RMK AO2 SLP035 T00061017 FZRANO
PFKT 161856Z AUTO 07007KT 10SM CLR M01/M03 A2963 RMK AO2 SLP034 T10061028 FZRANO
PFKT 161756Z AUTO 07008KT 10SM CLR M01/M03 A2963 RMK AO2 SLP033 T10111028 10006 21011 53001 FZRANO
PFKT 161740Z AUTO 06008KT 10SM SCT017 M01/M03 A2962 RMK AO2 FZRANO
PFKT 161656Z AUTO 06008KT 10SM OVC017 M01/M03 A2962 RMK AO2 SLP032 T10061028 FZRANO
PFKT 161556Z AUTO 06007KT 10SM OVC017 00/M02 A2962 RMK AO2 SLP031 T00001022 FZRANO
PFKT 161456Z AUTO 08006KT 10SM OVC017 01/M02 A2962 RMK AO2 SLP031 T00061022 52000 FZRANO
PFKT 161356Z AUTO 06005KT 10SM BKN017 00/M02 A2962 RMK AO2 SLP031 T00001017 FZRANO
PFKT 161256Z AUTO 07006KT 10SM OVC019 01/M01 A2962 RMK AO2 SLP030 T00061011 FZRANO
PFKT 161156Z AUTO 07006KT 10SM OVC019 00/M02 A2962 RMK AO2 SLP031 T00001017 10011 21011 51004 FZRANO
PFKT 161147Z AUTO 06006KT 10SM BKN019 00/M02 A2962 RMK AO2 FZRANO
PFKT 161125Z AUTO 06007KT 10SM SCT019 00/M02 A2962 RMK AO2 FZRANO
PFKT 161056Z AUTO 07007KT 10SM BKN019 00/M01 A2962 RMK AO2 SLP030 T00001011 FZRANO
PFKT 160956Z AUTO 07007KT 10SM BKN017 00/M01 A2962 RMK AO2 SLP029 T00001011 FZRANO
PFKT 160856Z AUTO 08008KT 10SM OVC019 01/M01 A2961 RMK AO2 SLP028 T00061011 400391011 53006 FZRANO
PFKT 160844Z AUTO 09007KT 10SM BKN019 01/M01 A2961 RMK AO2 FZRANO
PFKT 160756Z AUTO 09005KT 10SM FEW025 M01/M02 A2960 RMK AO2 SLP025 T10061017 FZRANO
PFKT 160656Z AUTO 08005KT 10SM CLR 00/M01 A2960 RMK AO2 SLP023 T00001011 FZRANO